Callander, Canada
Current Conditions -  °F | °C
As of 7:00 AM on Monday 22 Dec 2014 (Local Time) from CYYB Reporting Station
Overcast Overcast  
Wind Chill: 14°   Ceiling: 2300
Heat Index: 23°   Visibility: 15mi
Dew Point: 21°   Wind: 8mph
Humidity: 93%   Direction: 100°E
Pressure: 30.2"   Gusts: NA
Location:  46.22°N, 79.36°W
Report Text: CYYB 221200Z 10007KT 15SM OVC023 M05/M06 A3020 RMK SC8 SLP249
Loading
Personal Weather Stations






























Interactive Weather Map New forecast layout! Learn more

10-Day Weather Forecast

Advertisements
Track Severe Weather on mobile